Shagang Hongfa — 9V9138 — position and weather

sailwx.info

Track history (hours):
 
Tides and Currents Weather Stations Pressure Air Temp Water Temp Dewpoint Dewpoint Depression Visibility Wind Speed Wind Dir Waves Ship Positions

Shagang Hongfa

Last reported at 2015-Jul-31 07:24 UTC. Time now 2015-Aug-04 01:24 UTC.
Position S 17°33' E 116°40'.

Length 292 m; draft 17.6 m.

Type: Cargo ship. MMSI: 566178000.

Date/timePositionNaut miles runAvg speedWind from/ knotsBaromVisibWave heightAir tempDewpointWater temp
2015-Jul-31 07:24S 17°33' E 116°40'1011.3
2015-Jul-31 06:31S 17°43' E 116°42'1111.5
2015-Jul-31 05:33S 17°54' E 116°43'2811.2
2015-Jul-31 03:06S 18°21' E 116°47'5110.7
2015-Jul-30 22:18S 19°12' E 116°52'810.8
2015-Jul-30 21:31S 19°20' E 116°51'1311.2
2015-Jul-30 20:24S 19°33' E 116°52'1011.3
2015-Jul-30 19:33S 19°42' E 116°52'1111.3
2015-Jul-30 18:33S 19°54' E 116°51'1110.9
2015-Jul-30 17:31S 20°05' E 116°47'1010.8
2015-Jul-30 16:33S 20°15' E 116°44'1110.8
2015-Jul-30 15:33S 20°25' E 116°43'9 8.9
2015-Jul-30 14:33S 20°34' E 116°42'1 0.0
2015-Jul-29 07:20S 20°35' E 116°42'1113.4
2015-Jul-29 06:30S 20°25' E 116°43'10 1.7
2015-Jul-29 00:28S 20°21' E 116°32'0 0.0
2015-Jul-28 14:22S 20°21' E 116°32'1 0.0
2015-Jul-26 11:31S 20°22' E 116°32'1111.3
2015-Jul-26 10:33S 20°12' E 116°38'1413.3
2015-Jul-26 09:31S 20°00' E 116°46'  
Track history (hours):
 
Tides and Currents Weather Stations Pressure Air Temp Water Temp Dewpoint Dewpoint Depression Visibility Wind Speed Wind Dir Waves Ship Positions

Shagang Hongfa

Last reported at 2015-Jul-31 07:24 UTC. Time now 2015-Aug-04 01:24 UTC.
Position S 17°33' E 116°40'.

Length 292 m; draft 17.6 m.

Type: Cargo ship. MMSI: 566178000.

Date/timePositionNaut miles runAvg speedWind from/ knotsBaromVisibWave heightAir tempDewpointWater temp
2015-Jul-31 07:24S 17°33' E 116°40'1011.3
2015-Jul-31 06:31S 17°43' E 116°42'1111.5
2015-Jul-31 05:33S 17°54' E 116°43'2811.2
2015-Jul-31 03:06S 18°21' E 116°47'5110.7
2015-Jul-30 22:18S 19°12' E 116°52'810.8
2015-Jul-30 21:31S 19°20' E 116°51'1311.2
2015-Jul-30 20:24S 19°33' E 116°52'1011.3
2015-Jul-30 19:33S 19°42' E 116°52'1111.3
2015-Jul-30 18:33S 19°54' E 116°51'1110.9
2015-Jul-30 17:31S 20°05' E 116°47'1010.8
2015-Jul-30 16:33S 20°15' E 116°44'1110.8
2015-Jul-30 15:33S 20°25' E 116°43'9 8.9
2015-Jul-30 14:33S 20°34' E 116°42'1 0.0
2015-Jul-29 07:20S 20°35' E 116°42'1113.4
2015-Jul-29 06:30S 20°25' E 116°43'10 1.7
2015-Jul-29 00:28S 20°21' E 116°32'0 0.0
2015-Jul-28 14:22S 20°21' E 116°32'1 0.0
2015-Jul-26 11:31S 20°22' E 116°32'1111.3
2015-Jul-26 10:33S 20°12' E 116°38'1413.3
2015-Jul-26 09:31S 20°00' E 116°46'  

Dump ship's entire track history